sensor_id;sensor_type;location;lat;lon;timestamp;temperature;humidity
40758;DHT22;26462;47.384;19.218;2023-11-21T00:00:09;4.80;99.90
40758;DHT22;26462;47.384;19.218;2023-11-21T00:02:40;4.80;99.90
40758;DHT22;26462;47.384;19.218;2023-11-21T00:05:09;4.80;99.90
40758;DHT22;26462;47.384;19.218;2023-11-21T00:07:38;4.80;99.90
40758;DHT22;26462;47.384;19.218;2023-11-21T00:10:07;4.80;99.90
40758;DHT22;26462;47.384;19.218;2023-11-21T00:12:38;4.70;99.90
40758;DHT22;26462;47.384;19.218;2023-11-21T00:15:10;4.70;99.90
40758;DHT22;26462;47.384;19.218;2023-11-21T00:17:39;4.70;99.90
40758;DHT22;26462;47.384;19.218;2023-11-21T00:20:09;4.70;99.90
40758;DHT22;26462;47.384;19.218;2023-11-21T00:22:40;4.70;99.90
40758;DHT22;26462;47.384;19.218;2023-11-21T00:25:09;4.70;99.90
40758;DHT22;26462;47.384;19.218;2023-11-21T00:27:39;4.70;99.90
40758;DHT22;26462;47.384;19.218;2023-11-21T00:30:08;4.40;99.90
40758;DHT22;26462;47.384;19.218;2023-11-21T00:32:37;4.70;99.90
40758;DHT22;26462;47.384;19.218;2023-11-21T00:35:07;4.70;99.90
40758;DHT22;26462;47.384;19.218;2023-11-21T00:37:36;4.70;99.90
40758;DHT22;26462;47.384;19.218;2023-11-21T00:40:07;4.70;99.90
40758;DHT22;26462;47.384;19.218;2023-11-21T00:42:36;4.70;99.90
40758;DHT22;26462;47.384;19.218;2023-11-21T00:45:07;4.80;99.90
40758;DHT22;26462;47.384;19.218;2023-11-21T00:47:36;4.70;99.90
40758;DHT22;26462;47.384;19.218;2023-11-21T00:50:07;4.70;99.90
40758;DHT22;26462;47.384;19.218;2023-11-21T00:52:36;4.70;99.90
40758;DHT22;26462;47.384;19.218;2023-11-21T00:55:06;4.70;99.90
40758;DHT22;26462;47.384;19.218;2023-11-21T00:57:35;4.70;99.90
40758;DHT22;26462;47.384;19.218;2023-11-21T01:00:07;4.80;99.90
40758;DHT22;26462;47.384;19.218;2023-11-21T01:02:40;4.70;99.90
40758;DHT22;26462;47.384;19.218;2023-11-21T01:05:09;4.70;99.90
40758;DHT22;26462;47.384;19.218;2023-11-21T01:07:37;4.70;99.90
40758;DHT22;26462;47.384;19.218;2023-11-21T01:10:06;4.70;99.90
40758;DHT22;26462;47.384;19.218;2023-11-21T01:12:36;4.70;99.90
40758;DHT22;26462;47.384;19.218;2023-11-21T01:15:07;4.70;99.90
40758;DHT22;26462;47.384;19.218;2023-11-21T01:17:36;4.70;99.90
40758;DHT22;26462;47.384;19.218;2023-11-21T01:20:06;4.60;99.90
40758;DHT22;26462;47.384;19.218;2023-11-21T01:22:40;4.70;99.90
40758;DHT22;26462;47.384;19.218;2023-11-21T01:25:08;4.60;99.90
40758;DHT22;26462;47.384;19.218;2023-11-21T01:27:38;4.60;99.90
40758;DHT22;26462;47.384;19.218;2023-11-21T01:30:08;4.60;99.90
40758;DHT22;26462;47.384;19.218;2023-11-21T01:32:37;4.60;99.90
40758;DHT22;26462;47.384;19.218;2023-11-21T01:35:07;4.60;99.90
40758;DHT22;26462;47.384;19.218;2023-11-21T01:37:37;4.60;99.90
40758;DHT22;26462;47.384;19.218;2023-11-21T01:40:07;4.70;99.90
40758;DHT22;26462;47.384;19.218;2023-11-21T01:42:40;4.60;99.90
40758;DHT22;26462;47.384;19.218;2023-11-21T01:45:12;4.70;99.90
40758;DHT22;26462;47.384;19.218;2023-11-21T01:47:41;4.70;99.90
40758;DHT22;26462;47.384;19.218;2023-11-21T01:50:14;4.70;99.90
40758;DHT22;26462;47.384;19.218;2023-11-21T01:52:45;4.60;99.90
40758;DHT22;26462;47.384;19.218;2023-11-21T01:55:17;4.70;99.90
40758;DHT22;26462;47.384;19.218;2023-11-21T01:57:55;4.60;99.90
40758;DHT22;26462;47.384;19.218;2023-11-21T02:00:26;4.60;99.90
40758;DHT22;26462;47.384;19.218;2023-11-21T02:02:57;4.60;99.90
40758;DHT22;26462;47.384;19.218;2023-11-21T02:05:27;4.60;99.90
40758;DHT22;26462;47.384;19.218;2023-11-21T02:07:58;4.60;99.90
40758;DHT22;26462;47.384;19.218;2023-11-21T02:10:27;4.60;99.90
40758;DHT22;26462;47.384;19.218;2023-11-21T02:12:58;4.60;99.90
40758;DHT22;26462;47.384;19.218;2023-11-21T02:15:31;4.60;99.90
40758;DHT22;26462;47.384;19.218;2023-11-21T02:17:59;4.60;99.90
40758;DHT22;26462;47.384;19.218;2023-11-21T02:20:30;4.60;99.90
40758;DHT22;26462;47.384;19.218;2023-11-21T02:23:04;4.60;99.90
40758;DHT22;26462;47.384;19.218;2023-11-21T02:25:33;4.60;99.90
40758;DHT22;26462;47.384;19.218;2023-11-21T02:28:04;4.60;99.90
40758;DHT22;26462;47.384;19.218;2023-11-21T02:30:34;4.60;99.90
40758;DHT22;26462;47.384;19.218;2023-11-21T02:33:04;4.60;99.90
40758;DHT22;26462;47.384;19.218;2023-11-21T02:35:32;4.60;99.90
40758;DHT22;26462;47.384;19.218;2023-11-21T02:38:03;4.60;99.90
40758;DHT22;26462;47.384;19.218;2023-11-21T02:40:33;4.60;99.90
40758;DHT22;26462;47.384;19.218;2023-11-21T02:43:01;4.60;99.90
40758;DHT22;26462;47.384;19.218;2023-11-21T02:45:30;4.60;99.90
40758;DHT22;26462;47.384;19.218;2023-11-21T02:47:58;4.60;99.90
40758;DHT22;26462;47.384;19.218;2023-11-21T02:50:27;4.70;99.90
40758;DHT22;26462;47.384;19.218;2023-11-21T02:52:57;4.70;99.90
40758;DHT22;26462;47.384;19.218;2023-11-21T02:55:29;4.70;99.90
40758;DHT22;26462;47.384;19.218;2023-11-21T02:57:58;4.70;99.90
40758;DHT22;26462;47.384;19.218;2023-11-21T03:00:27;4.70;99.90
40758;DHT22;26462;47.384;19.218;2023-11-21T03:02:56;4.70;99.90
40758;DHT22;26462;47.384;19.218;2023-11-21T03:05:25;4.60;99.90
40758;DHT22;26462;47.384;19.218;2023-11-21T03:07:56;4.70;99.90
40758;DHT22;26462;47.384;19.218;2023-11-21T03:10:25;4.70;99.90
40758;DHT22;26462;47.384;19.218;2023-11-21T03:12:56;4.60;99.90
40758;DHT22;26462;47.384;19.218;2023-11-21T03:15:25;4.60;99.90
40758;DHT22;26462;47.384;19.218;2023-11-21T03:17:54;4.70;99.90
40758;DHT22;26462;47.384;19.218;2023-11-21T03:20:23;4.70;99.90
40758;DHT22;26462;47.384;19.218;2023-11-21T03:22:52;4.60;99.90
40758;DHT22;26462;47.384;19.218;2023-11-21T03:25:21;4.60;99.90
40758;DHT22;26462;47.384;19.218;2023-11-21T03:27:51;4.60;99.90
40758;DHT22;26462;47.384;19.218;2023-11-21T03:30:21;4.60;99.90
40758;DHT22;26462;47.384;19.218;2023-11-21T03:32:50;4.60;99.90
40758;DHT22;26462;47.384;19.218;2023-11-21T03:35:18;4.60;99.90
40758;DHT22;26462;47.384;19.218;2023-11-21T03:37:48;4.60;99.90
40758;DHT22;26462;47.384;19.218;2023-11-21T03:40:16;4.60;99.90
40758;DHT22;26462;47.384;19.218;2023-11-21T03:42:45;4.60;99.90
40758;DHT22;26462;47.384;19.218;2023-11-21T03:45:13;4.60;99.90
40758;DHT22;26462;47.384;19.218;2023-11-21T03:47:43;4.50;99.90
40758;DHT22;26462;47.384;19.218;2023-11-21T03:50:11;4.50;99.90
40758;DHT22;26462;47.384;19.218;2023-11-21T03:52:40;4.50;99.90
40758;DHT22;26462;47.384;19.218;2023-11-21T03:55:09;4.50;99.90
40758;DHT22;26462;47.384;19.218;2023-11-21T03:57:42;4.40;99.90
40758;DHT22;26462;47.384;19.218;2023-11-21T04:00:11;4.50;99.90
40758;DHT22;26462;47.384;19.218;2023-11-21T04:02:40;4.50;99.90
40758;DHT22;26462;47.384;19.218;2023-11-21T04:05:10;4.50;99.90
40758;DHT22;26462;47.384;19.218;2023-11-21T04:07:39;4.50;99.90
40758;DHT22;26462;47.384;19.218;2023-11-21T04:10:08;4.60;99.90
40758;DHT22;26462;47.384;19.218;2023-11-21T04:12:39;4.50;99.90
40758;DHT22;26462;47.384;19.218;2023-11-21T04:15:08;4.50;99.90
40758;DHT22;26462;47.384;19.218;2023-11-21T04:17:37;4.50;99.90
40758;DHT22;26462;47.384;19.218;2023-11-21T04:20:07;4.50;99.90
40758;DHT22;26462;47.384;19.218;2023-11-21T04:22:39;4.50;99.90
40758;DHT22;26462;47.384;19.218;2023-11-21T04:25:13;4.50;99.90
40758;DHT22;26462;47.384;19.218;2023-11-21T04:27:44;4.50;99.90
40758;DHT22;26462;47.384;19.218;2023-11-21T04:30:13;4.50;99.90
40758;DHT22;26462;47.384;19.218;2023-11-21T04:32:42;4.50;99.90
40758;DHT22;26462;47.384;19.218;2023-11-21T04:35:10;4.50;99.90
40758;DHT22;26462;47.384;19.218;2023-11-21T04:37:40;4.50;99.90
40758;DHT22;26462;47.384;19.218;2023-11-21T04:40:09;4.50;99.90
40758;DHT22;26462;47.384;19.218;2023-11-21T04:42:38;4.50;99.90
40758;DHT22;26462;47.384;19.218;2023-11-21T04:45:08;4.50;99.90
40758;DHT22;26462;47.384;19.218;2023-11-21T04:47:40;4.50;99.90
40758;DHT22;26462;47.384;19.218;2023-11-21T04:50:09;4.50;99.90
40758;DHT22;26462;47.384;19.218;2023-11-21T04:52:37;4.50;99.90
40758;DHT22;26462;47.384;19.218;2023-11-21T04:55:08;4.50;99.90
40758;DHT22;26462;47.384;19.218;2023-11-21T04:57:38;4.60;99.90
40758;DHT22;26462;47.384;19.218;2023-11-21T05:00:10;4.60;99.90
40758;DHT22;26462;47.384;19.218;2023-11-21T05:02:40;4.60;99.90
40758;DHT22;26462;47.384;19.218;2023-11-21T05:05:09;4.60;99.90
40758;DHT22;26462;47.384;19.218;2023-11-21T05:07:38;4.60;99.90
40758;DHT22;26462;47.384;19.218;2023-11-21T05:10:09;4.60;99.90
40758;DHT22;26462;47.384;19.218;2023-11-21T05:12:40;4.60;99.90
40758;DHT22;26462;47.384;19.218;2023-11-21T05:15:09;4.60;99.90
40758;DHT22;26462;47.384;19.218;2023-11-21T05:17:38;4.60;99.90
40758;DHT22;26462;47.384;19.218;2023-11-21T05:20:09;4.60;99.90
40758;DHT22;26462;47.384;19.218;2023-11-21T05:22:39;4.70;99.90
40758;DHT22;26462;47.384;19.218;2023-11-21T05:25:11;4.60;99.90
40758;DHT22;26462;47.384;19.218;2023-11-21T05:27:39;4.70;99.90
40758;DHT22;26462;47.384;19.218;2023-11-21T05:30:08;4.70;99.90
40758;DHT22;26462;47.384;19.218;2023-11-21T05:32:39;4.70;99.90
40758;DHT22;26462;47.384;19.218;2023-11-21T05:35:10;4.70;99.90
40758;DHT22;26462;47.384;19.218;2023-11-21T05:37:43;4.70;99.90
40758;DHT22;26462;47.384;19.218;2023-11-21T05:40:14;4.70;99.90
40758;DHT22;26462;47.384;19.218;2023-11-21T05:42:44;4.80;99.90
40758;DHT22;26462;47.384;19.218;2023-11-21T05:45:13;4.70;99.90
40758;DHT22;26462;47.384;19.218;2023-11-21T05:47:44;4.80;99.90
40758;DHT22;26462;47.384;19.218;2023-11-21T05:50:15;4.80;99.90
40758;DHT22;26462;47.384;19.218;2023-11-21T05:52:44;4.80;99.90
40758;DHT22;26462;47.384;19.218;2023-11-21T05:55:14;4.80;99.90
40758;DHT22;26462;47.384;19.218;2023-11-21T05:57:44;4.90;99.90
40758;DHT22;26462;47.384;19.218;2023-11-21T06:00:14;4.90;99.90
40758;DHT22;26462;47.384;19.218;2023-11-21T06:02:48;5.00;99.90
40758;DHT22;26462;47.384;19.218;2023-11-21T06:05:22;5.00;99.90
40758;DHT22;26462;47.384;19.218;2023-11-21T06:07:52;5.00;99.90
40758;DHT22;26462;47.384;19.218;2023-11-21T06:10:23;5.00;99.90
40758;DHT22;26462;47.384;19.218;2023-11-21T06:12:52;5.00;99.90
40758;DHT22;26462;47.384;19.218;2023-11-21T06:15:21;5.00;99.90
40758;DHT22;26462;47.384;19.218;2023-11-21T06:17:51;5.00;99.90
40758;DHT22;26462;47.384;19.218;2023-11-21T06:20:21;5.00;99.90
40758;DHT22;26462;47.384;19.218;2023-11-21T06:22:50;5.00;99.90
40758;DHT22;26462;47.384;19.218;2023-11-21T06:25:19;5.00;99.90
40758;DHT22;26462;47.384;19.218;2023-11-21T06:27:50;5.00;99.90
40758;DHT22;26462;47.384;19.218;2023-11-21T06:30:21;5.00;99.90
40758;DHT22;26462;47.384;19.218;2023-11-21T06:32:50;5.10;99.90
40758;DHT22;26462;47.384;19.218;2023-11-21T06:35:20;5.10;99.90
40758;DHT22;26462;47.384;19.218;2023-11-21T06:37:49;5.10;99.90
40758;DHT22;26462;47.384;19.218;2023-11-21T06:40:19;5.10;99.90
40758;DHT22;26462;47.384;19.218;2023-11-21T06:42:49;5.10;99.90
40758;DHT22;26462;47.384;19.218;2023-11-21T06:45:18;5.20;99.90
40758;DHT22;26462;47.384;19.218;2023-11-21T06:47:47;5.20;99.90
40758;DHT22;26462;47.384;19.218;2023-11-21T06:50:17;5.20;99.90
40758;DHT22;26462;47.384;19.218;2023-11-21T06:52:45;5.20;99.90
40758;DHT22;26462;47.384;19.218;2023-11-21T06:55:14;5.20;99.90
40758;DHT22;26462;47.384;19.218;2023-11-21T06:57:43;5.20;99.90
40758;DHT22;26462;47.384;19.218;2023-11-21T07:00:15;5.20;99.90
40758;DHT22;26462;47.384;19.218;2023-11-21T07:02:46;5.20;99.90
40758;DHT22;26462;47.384;19.218;2023-11-21T07:05:14;5.20;99.90
40758;DHT22;26462;47.384;19.218;2023-11-21T07:07:48;5.30;99.90
40758;DHT22;26462;47.384;19.218;2023-11-21T07:10:17;5.30;99.90
40758;DHT22;26462;47.384;19.218;2023-11-21T07:12:46;5.40;99.90
40758;DHT22;26462;47.384;19.218;2023-11-21T07:15:16;5.40;99.90
40758;DHT22;26462;47.384;19.218;2023-11-21T07:17:46;5.40;99.90
40758;DHT22;26462;47.384;19.218;2023-11-21T07:20:16;5.50;99.90
40758;DHT22;26462;47.384;19.218;2023-11-21T07:22:45;5.60;99.90
40758;DHT22;26462;47.384;19.218;2023-11-21T07:25:13;5.60;99.90
40758;DHT22;26462;47.384;19.218;2023-11-21T07:27:42;5.60;99.90
40758;DHT22;26462;47.384;19.218;2023-11-21T07:30:12;5.60;99.90
40758;DHT22;26462;47.384;19.218;2023-11-21T07:32:42;5.70;99.90
40758;DHT22;26462;47.384;19.218;2023-11-21T07:35:13;5.70;99.90
40758;DHT22;26462;47.384;19.218;2023-11-21T07:37:42;5.70;99.90
40758;DHT22;26462;47.384;19.218;2023-11-21T07:40:11;5.70;99.90
40758;DHT22;26462;47.384;19.218;2023-11-21T07:42:41;5.80;99.90
40758;DHT22;26462;47.384;19.218;2023-11-21T07:45:10;5.80;99.90
40758;DHT22;26462;47.384;19.218;2023-11-21T07:47:39;5.80;99.90
40758;DHT22;26462;47.384;19.218;2023-11-21T07:50:10;5.90;99.90
40758;DHT22;26462;47.384;19.218;2023-11-21T07:52:40;5.90;99.90
40758;DHT22;26462;47.384;19.218;2023-11-21T07:55:09;5.90;99.90
40758;DHT22;26462;47.384;19.218;2023-11-21T07:57:38;6.00;99.90
40758;DHT22;26462;47.384;19.218;2023-11-21T08:00:08;6.00;99.90
40758;DHT22;26462;47.384;19.218;2023-11-21T08:02:39;6.00;99.90
40758;DHT22;26462;47.384;19.218;2023-11-21T08:05:11;6.00;99.90
40758;DHT22;26462;47.384;19.218;2023-11-21T08:07:51;6.10;99.90
40758;DHT22;26462;47.384;19.218;2023-11-21T08:10:19;6.10;99.90
40758;DHT22;26462;47.384;19.218;2023-11-21T08:12:49;6.10;99.90
40758;DHT22;26462;47.384;19.218;2023-11-21T08:15:18;6.10;99.90
40758;DHT22;26462;47.384;19.218;2023-11-21T08:17:47;6.10;99.90
40758;DHT22;26462;47.384;19.218;2023-11-21T08:20:17;6.10;99.90
40758;DHT22;26462;47.384;19.218;2023-11-21T08:22:46;6.10;99.90
40758;DHT22;26462;47.384;19.218;2023-11-21T08:25:16;6.10;99.90
40758;DHT22;26462;47.384;19.218;2023-11-21T08:27:47;6.20;99.90
40758;DHT22;26462;47.384;19.218;2023-11-21T08:30:16;6.20;99.90
40758;DHT22;26462;47.384;19.218;2023-11-21T08:32:47;6.20;99.90
40758;DHT22;26462;47.384;19.218;2023-11-21T08:35:17;6.20;99.90
40758;DHT22;26462;47.384;19.218;2023-11-21T08:37:45;6.30;99.90
40758;DHT22;26462;47.384;19.218;2023-11-21T08:40:14;6.30;99.90
40758;DHT22;26462;47.384;19.218;2023-11-21T08:42:44;6.30;99.90
40758;DHT22;26462;47.384;19.218;2023-11-21T08:45:13;6.40;99.90
40758;DHT22;26462;47.384;19.218;2023-11-21T08:47:42;6.40;99.90
40758;DHT22;26462;47.384;19.218;2023-11-21T08:50:11;6.40;99.90
40758;DHT22;26462;47.384;19.218;2023-11-21T08:52:42;6.40;99.90
40758;DHT22;26462;47.384;19.218;2023-11-21T08:55:10;6.40;99.90
40758;DHT22;26462;47.384;19.218;2023-11-21T08:57:40;6.40;99.90
40758;DHT22;26462;47.384;19.218;2023-11-21T09:00:09;6.40;99.90
40758;DHT22;26462;47.384;19.218;2023-11-21T09:02:39;6.40;99.90
40758;DHT22;26462;47.384;19.218;2023-11-21T09:05:09;6.40;99.90
40758;DHT22;26462;47.384;19.218;2023-11-21T09:07:38;6.50;99.90
40758;DHT22;26462;47.384;19.218;2023-11-21T09:10:10;6.50;99.90
40758;DHT22;26462;47.384;19.218;2023-11-21T09:12:38;6.50;99.90
40758;DHT22;26462;47.384;19.218;2023-11-21T09:15:08;6.60;99.90
40758;DHT22;26462;47.384;19.218;2023-11-21T09:17:39;6.60;99.90
40758;DHT22;26462;47.384;19.218;2023-11-21T09:20:09;6.20;99.90
40758;DHT22;26462;47.384;19.218;2023-11-21T09:22:38;6.70;99.90
40758;DHT22;26462;47.384;19.218;2023-11-21T09:25:09;6.70;99.90
40758;DHT22;26462;47.384;19.218;2023-11-21T09:27:38;6.70;99.90
40758;DHT22;26462;47.384;19.218;2023-11-21T09:30:07;6.70;99.90
40758;DHT22;26462;47.384;19.218;2023-11-21T09:32:38;6.80;99.90
40758;DHT22;26462;47.384;19.218;2023-11-21T09:35:08;6.80;99.90
40758;DHT22;26462;47.384;19.218;2023-11-21T09:37:38;6.80;99.90
40758;DHT22;26462;47.384;19.218;2023-11-21T09:40:12;6.80;99.90
40758;DHT22;26462;47.384;19.218;2023-11-21T09:42:49;5.80;99.90
40758;DHT22;26462;47.384;19.218;2023-11-21T09:45:25;6.80;99.90
40758;DHT22;26462;47.384;19.218;2023-11-21T09:47:54;6.90;99.90
40758;DHT22;26462;47.384;19.218;2023-11-21T09:50:24;6.90;99.90
40758;DHT22;26462;47.384;19.218;2023-11-21T09:52:57;6.90;99.90
40758;DHT22;26462;47.384;19.218;2023-11-21T09:55:30;6.90;99.90
40758;DHT22;26462;47.384;19.218;2023-11-21T09:58:03;6.90;99.90
40758;DHT22;26462;47.384;19.218;2023-11-21T10:00:35;7.00;99.90
40758;DHT22;26462;47.384;19.218;2023-11-21T10:03:03;7.00;99.90
40758;DHT22;26462;47.384;19.218;2023-11-21T10:05:32;7.00;99.90
40758;DHT22;26462;47.384;19.218;2023-11-21T10:08:01;7.00;99.90
40758;DHT22;26462;47.384;19.218;2023-11-21T10:10:32;7.00;99.90
40758;DHT22;26462;47.384;19.218;2023-11-21T10:13:03;7.00;99.90
40758;DHT22;26462;47.384;19.218;2023-11-21T10:15:34;7.00;99.90
40758;DHT22;26462;47.384;19.218;2023-11-21T10:18:05;7.00;99.90
40758;DHT22;26462;47.384;19.218;2023-11-21T10:20:36;7.00;99.90
40758;DHT22;26462;47.384;19.218;2023-11-21T10:23:05;7.10;99.90
40758;DHT22;26462;47.384;19.218;2023-11-21T10:25:36;7.10;99.90
40758;DHT22;26462;47.384;19.218;2023-11-21T10:28:05;7.10;99.90
40758;DHT22;26462;47.384;19.218;2023-11-21T10:30:35;7.10;99.90
40758;DHT22;26462;47.384;19.218;2023-11-21T10:33:05;7.10;99.90
40758;DHT22;26462;47.384;19.218;2023-11-21T10:35:45;7.20;99.90
40758;DHT22;26462;47.384;19.218;2023-11-21T10:38:18;7.20;99.90
40758;DHT22;26462;47.384;19.218;2023-11-21T10:40:51;7.20;99.90
40758;DHT22;26462;47.384;19.218;2023-11-21T10:43:25;7.20;99.90
40758;DHT22;26462;47.384;19.218;2023-11-21T10:45:57;7.20;99.90
40758;DHT22;26462;47.384;19.218;2023-11-21T10:48:27;7.00;99.90
40758;DHT22;26462;47.384;19.218;2023-11-21T10:50:56;7.30;99.90
40758;DHT22;26462;47.384;19.218;2023-11-21T10:53:29;7.30;99.90
40758;DHT22;26462;47.384;19.218;2023-11-21T10:56:05;7.40;99.90
40758;DHT22;26462;47.384;19.218;2023-11-21T10:58:35;7.40;99.90
40758;DHT22;26462;47.384;19.218;2023-11-21T11:01:06;7.40;99.90
40758;DHT22;26462;47.384;19.218;2023-11-21T11:03:39;7.40;99.90
40758;DHT22;26462;47.384;19.218;2023-11-21T11:06:08;7.40;99.90
40758;DHT22;26462;47.384;19.218;2023-11-21T11:08:39;7.40;99.90
40758;DHT22;26462;47.384;19.218;2023-11-21T11:11:09;7.50;99.90
40758;DHT22;26462;47.384;19.218;2023-11-21T11:13:43;7.50;99.90
40758;DHT22;26462;47.384;19.218;2023-11-21T11:16:13;7.50;99.90
40758;DHT22;26462;47.384;19.218;2023-11-21T11:18:45;7.50;99.90
40758;DHT22;26462;47.384;19.218;2023-11-21T11:21:25;7.50;99.90
40758;DHT22;26462;47.384;19.218;2023-11-21T11:27:03;7.60;99.90
40758;DHT22;26462;47.384;19.218;2023-11-21T11:29:41;7.60;99.90
40758;DHT22;26462;47.384;19.218;2023-11-21T11:32:20;7.60;99.90
40758;DHT22;26462;47.384;19.218;2023-11-21T11:34:56;7.60;99.90
40758;DHT22;26462;47.384;19.218;2023-11-21T11:37:28;7.60;99.90
40758;DHT22;26462;47.384;19.218;2023-11-21T11:39:57;7.70;99.90
40758;DHT22;26462;47.384;19.218;2023-11-21T11:42:28;7.70;99.90
40758;DHT22;26462;47.384;19.218;2023-11-21T11:44:58;7.70;99.90
40758;DHT22;26462;47.384;19.218;2023-11-21T11:47:27;7.70;99.90
40758;DHT22;26462;47.384;19.218;2023-11-21T11:50:03;7.80;99.90
40758;DHT22;26462;47.384;19.218;2023-11-21T11:52:39;7.80;99.90
40758;DHT22;26462;47.384;19.218;2023-11-21T11:55:09;7.80;99.90
40758;DHT22;26462;47.384;19.218;2023-11-21T11:57:42;7.80;99.90
40758;DHT22;26462;47.384;19.218;2023-11-21T12:00:13;7.80;99.90
40758;DHT22;26462;47.384;19.218;2023-11-21T12:02:49;7.90;99.90
40758;DHT22;26462;47.384;19.218;2023-11-21T12:05:19;7.80;99.90
40758;DHT22;26462;47.384;19.218;2023-11-21T12:07:50;7.80;99.90
40758;DHT22;26462;47.384;19.218;2023-11-21T12:10:21;7.80;99.90
40758;DHT22;26462;47.384;19.218;2023-11-21T12:12:54;7.90;99.90
40758;DHT22;26462;47.384;19.218;2023-11-21T12:15:23;8.00;99.90
40758;DHT22;26462;47.384;19.218;2023-11-21T12:17:52;7.90;99.90
40758;DHT22;26462;47.384;19.218;2023-11-21T12:20:22;7.90;99.90
40758;DHT22;26462;47.384;19.218;2023-11-21T12:22:52;7.90;99.90
40758;DHT22;26462;47.384;19.218;2023-11-21T12:25:22;7.90;99.90
40758;DHT22;26462;47.384;19.218;2023-11-21T12:27:53;7.90;99.90
40758;DHT22;26462;47.384;19.218;2023-11-21T12:30:22;7.90;99.90
40758;DHT22;26462;47.384;19.218;2023-11-21T12:32:52;8.00;99.90
40758;DHT22;26462;47.384;19.218;2023-11-21T12:35:22;8.10;99.90
40758;DHT22;26462;47.384;19.218;2023-11-21T12:37:52;8.00;99.90
40758;DHT22;26462;47.384;19.218;2023-11-21T12:40:21;8.10;99.90
40758;DHT22;26462;47.384;19.218;2023-11-21T12:42:53;8.10;99.90
40758;DHT22;26462;47.384;19.218;2023-11-21T12:45:23;8.10;99.90
40758;DHT22;26462;47.384;19.218;2023-11-21T12:47:55;8.10;99.90
40758;DHT22;26462;47.384;19.218;2023-11-21T12:50:29;8.10;99.90
40758;DHT22;26462;47.384;19.218;2023-11-21T12:53:00;8.10;99.90
40758;DHT22;26462;47.384;19.218;2023-11-21T12:55:31;8.20;99.90
40758;DHT22;26462;47.384;19.218;2023-11-21T12:58:02;8.20;99.90
40758;DHT22;26462;47.384;19.218;2023-11-21T13:00:40;8.20;99.90
40758;DHT22;26462;47.384;19.218;2023-11-21T13:03:11;8.20;99.90
40758;DHT22;26462;47.384;19.218;2023-11-21T13:05:47;8.10;99.90
40758;DHT22;26462;47.384;19.218;2023-11-21T13:08:20;8.20;99.90
40758;DHT22;26462;47.384;19.218;2023-11-21T13:10:51;8.20;99.90
40758;DHT22;26462;47.384;19.218;2023-11-21T13:13:23;8.20;99.90
40758;DHT22;26462;47.384;19.218;2023-11-21T13:15:53;8.10;99.90
40758;DHT22;26462;47.384;19.218;2023-11-21T13:18:23;8.20;99.90
40758;DHT22;26462;47.384;19.218;2023-11-21T13:20:55;8.10;99.90
40758;DHT22;26462;47.384;19.218;2023-11-21T13:23:24;8.10;99.90
40758;DHT22;26462;47.384;19.218;2023-11-21T13:25:53;8.10;99.90
40758;DHT22;26462;47.384;19.218;2023-11-21T13:28:33;8.10;99.90
40758;DHT22;26462;47.384;19.218;2023-11-21T13:31:03;8.10;99.90
40758;DHT22;26462;47.384;19.218;2023-11-21T13:33:38;8.10;99.90
40758;DHT22;26462;47.384;19.218;2023-11-21T13:36:10;8.10;99.90
40758;DHT22;26462;47.384;19.218;2023-11-21T13:38:41;8.10;99.90
40758;DHT22;26462;47.384;19.218;2023-11-21T13:41:11;8.10;99.90
40758;DHT22;26462;47.384;19.218;2023-11-21T13:43:43;8.10;99.90
40758;DHT22;26462;47.384;19.218;2023-11-21T13:46:17;7.30;99.90
40758;DHT22;26462;47.384;19.218;2023-11-21T13:48:49;8.00;99.90
40758;DHT22;26462;47.384;19.218;2023-11-21T13:51:24;8.10;99.90
40758;DHT22;26462;47.384;19.218;2023-11-21T13:54:03;8.00;99.90
40758;DHT22;26462;47.384;19.218;2023-11-21T13:56:37;7.70;99.90
40758;DHT22;26462;47.384;19.218;2023-11-21T13:59:08;8.10;99.90
40758;DHT22;26462;47.384;19.218;2023-11-21T14:01:45;8.00;99.90
40758;DHT22;26462;47.384;19.218;2023-11-21T14:04:24;8.10;99.90
40758;DHT22;26462;47.384;19.218;2023-11-21T14:07:23;8.10;99.90
40758;DHT22;26462;47.384;19.218;2023-11-21T14:10:00;8.00;99.90
40758;DHT22;26462;47.384;19.218;2023-11-21T14:12:29;8.00;99.90
40758;DHT22;26462;47.384;19.218;2023-11-21T14:15:07;8.00;99.90
40758;DHT22;26462;47.384;19.218;2023-11-21T14:17:37;8.00;99.90
40758;DHT22;26462;47.384;19.218;2023-11-21T14:20:09;7.90;99.90
40758;DHT22;26462;47.384;19.218;2023-11-21T14:22:43;7.90;99.90
40758;DHT22;26462;47.384;19.218;2023-11-21T14:25:12;7.80;99.90
40758;DHT22;26462;47.384;19.218;2023-11-21T14:27:41;7.80;99.90
40758;DHT22;26462;47.384;19.218;2023-11-21T14:30:12;7.80;99.90
40758;DHT22;26462;47.384;19.218;2023-11-21T14:32:42;7.70;99.90
40758;DHT22;26462;47.384;19.218;2023-11-21T14:35:10;7.70;99.90
40758;DHT22;26462;47.384;19.218;2023-11-21T14:37:39;7.70;99.90
40758;DHT22;26462;47.384;19.218;2023-11-21T14:40:08;7.70;99.90
40758;DHT22;26462;47.384;19.218;2023-11-21T14:42:37;7.60;99.90
40758;DHT22;26462;47.384;19.218;2023-11-21T14:45:08;7.60;99.90
40758;DHT22;26462;47.384;19.218;2023-11-21T14:47:40;7.60;99.90
40758;DHT22;26462;47.384;19.218;2023-11-21T14:50:14;7.60;99.90
40758;DHT22;26462;47.384;19.218;2023-11-21T14:52:56;7.60;99.90
40758;DHT22;26462;47.384;19.218;2023-11-21T14:55:26;7.50;99.90
40758;DHT22;26462;47.384;19.218;2023-11-21T14:57:59;7.40;99.90
40758;DHT22;26462;47.384;19.218;2023-11-21T15:00:31;7.40;99.90
40758;DHT22;26462;47.384;19.218;2023-11-21T15:03:13;7.50;99.90
40758;DHT22;26462;47.384;19.218;2023-11-21T15:06:02;7.30;99.90
40758;DHT22;26462;47.384;19.218;2023-11-21T15:08:50;7.30;99.90
40758;DHT22;26462;47.384;19.218;2023-11-21T15:11:26;7.40;99.90
40758;DHT22;26462;47.384;19.218;2023-11-21T15:13:58;7.20;99.90
40758;DHT22;26462;47.384;19.218;2023-11-21T15:16:27;7.20;99.90
40758;DHT22;26462;47.384;19.218;2023-11-21T15:18:56;7.20;99.90
40758;DHT22;26462;47.384;19.218;2023-11-21T15:21:25;7.30;99.90
40758;DHT22;26462;47.384;19.218;2023-11-21T15:23:53;7.20;99.90
40758;DHT22;26462;47.384;19.218;2023-11-21T15:26:22;6.90;99.90
40758;DHT22;26462;47.384;19.218;2023-11-21T15:28:50;7.20;99.90
40758;DHT22;26462;47.384;19.218;2023-11-21T15:31:18;7.20;99.90
40758;DHT22;26462;47.384;19.218;2023-11-21T15:33:52;6.10;99.90
40758;DHT22;26462;47.384;19.218;2023-11-21T15:36:22;7.20;99.90
40758;DHT22;26462;47.384;19.218;2023-11-21T15:38:50;7.20;99.90
40758;DHT22;26462;47.384;19.218;2023-11-21T15:41:19;7.20;99.90
40758;DHT22;26462;47.384;19.218;2023-11-21T15:43:48;7.20;99.90
40758;DHT22;26462;47.384;19.218;2023-11-21T15:46:18;7.20;99.90
40758;DHT22;26462;47.384;19.218;2023-11-21T15:48:46;7.20;99.90
40758;DHT22;26462;47.384;19.218;2023-11-21T15:51:22;7.20;99.90
40758;DHT22;26462;47.384;19.218;2023-11-21T15:53:50;7.20;99.90